Record high temperature 35.2°C Record low temperature -28.5°C Record high gust 73.6 km/h Record high average 52.2 km/h Record daily rain 78.0 mm Record low windchill -39.6°C Record high barometer 1045.2 hPa Record low barometer 973.0 hPa
Daily high pressure 1015 hPa Daily low pressure 1014 hPa Daily low windchill 1.0°C Daily high heat index 9.5°C Daily high gust speed 10.1 kmh SE Daily high average speed 7.2 kmh NNW
Beaconsfield Home Weather Data WMR-968
LAST READING AT TIME: 10:25 DATE: May 03 2016, time of next update: 10:30
Current WeatherCloudy/Dry Current Temperature 9.4°C (48.9°F), Apparent temp 6.8°C, Apparent temp solar 10.4°C
Maximum Temperature (since midnight)9.5°C at: 10:17 Minimum Temperature (since midnight)2.1°C at: 05:34
Average windspeed (ten minute)6.1 kmh (3.3 kts) Wind Direction (ten minute)SSE (157°)
Windchill Temperature 8.7°C Maximum Gust (last hour)10.1 kmh (5.4 kts) at: 10:22
Maximum Gust (since midnight)10.1 kmh (5.4 kts) at: 10:22 Maximum 1 minute average (since midnight)7.2 kmh (3.9 kts) at: 00:44
Rainfall (last hour)0.0 mm Rainfall (since midnight)0.0 mm (0.00 in.)---
Rainfall This month 10.0 mm (0.39 in.) Rainfall To date this year 214.0 mm (8.43 in.)
Maximum rain per minute (last hour)0.0 mm/min Maximum rain per hour (last 6 hours)0.0 mm/hour
Yesterdays rainfall 1.4 mm DewPoint -3.5°C (Wet Bulb :4.6°C )
Humidity 40 %, Humidex 6.5°C Barometer corrected to msl1014 hPa
Pressure change 0 hPa (last hour) Trend (last hour)STEADY
Pressure change (last 12 hours)-1 hPa Pressure change (last 6 hours)+0 hPa
Current Indoor Temp. 20.6°C
Current Indoor Hum. 30%
Current Solar 308 W/mē
Maximum solar (since midnight) 386 W/mē Minimum solar (since midnight)1000 W/mē
Current 00:00 hours of sunshine today, current sky: Cloudy
Sunshine hours for the year: 00:01 hrs Sunshine hours for the month: 00:00 hrs
Current evapotranspiration rate 1.3 mm per day. Yesterday's reading 1.4




Weather report/warning/Metars

Montreal / Pierre Elliot Trudeau International Airport, Que, Canada (CYUL) 45-28N 073-45W 36M
May 03, 2016 - 10:00 AM EDT / 2016.05.03 1400 UTC
Wind: Variable at 2 MPH (2 KT):0
Visibility: 15 mile(s):0
Sky conditions: mostly cloudy
Temperature: 48 F (9 C)
Dew Point: 37 F (3 C)
Relative Humidity: 66%
Pressure (altimeter): 29.94 in. Hg (1013 hPa)
ob: CYUL 031400Z VRB02KT 15SM SCT030 BKN045 BKN120 09/03 A2994 RMK SC4SC1AC2 SLP143
cycle: 14
Sherbrooke, Que., Canada (CYSC) 45-24N 071-53W
May 03, 2016 - 10:00 AM EDT / 2016.05.03 1400 UTC
Wind: from the SW (230 degrees) at 5 MPH (4 KT) (direction variable):0
Visibility: 9 mile(s):0
Sky conditions: overcast
Temperature: 41 F (5 C)
Dew Point: 37 F (3 C)
Relative Humidity: 86%
Pressure (altimeter): 29.91 in. Hg (1012 hPa)
ob: CYSC 031400Z AUTO 23004KT 200V270 9SM OVC010 05/03 A2991 RMK SLP139
cycle: 14
St Jovite Automatic Weather Reporting System , Canada (CWJT) 46-04N 074-32W
May 03, 2016 - 10:00 AM EDT / 2016.05.03 1400 UTC
Wind: from the WSW (240 degrees) at 2 MPH (2 KT):0
Temperature: 47.3 F (8.5 C)
Dew Point: 38.3 F (3.5 C)
Relative Humidity: 70%
Pressure tendency: 0.03 inches (0.9 hPa) lower than three hours ago
ob: CWJT 031400Z AUTO 24002KT 09/04 RMK AO1 SLP142 T00850035 58009
cycle: 14
Ste Anne De Bell 1, Canada (CWVQ) 45-26N 073-56W
May 03, 2016 - 10:00 AM EDT / 2016.05.03 1400 UTC
Wind: from the SSE (150 degrees) at 2 MPH (2 KT):0
Temperature: 47.5 F (8.6 C)
Dew Point: 40.3 F (4.6 C)
Relative Humidity: 75%
Pressure tendency: 0.02 inches (0.6 hPa) lower than three hours ago
ob: CWVQ 031400Z AUTO 15002KT 09/05 RMK AO1 SLP143 T00860046 58006
cycle: 14
Montreal / Mirabel, Canada (CYMX) 45-41N 074-02W
May 03, 2016 - 09:00 AM EDT / 2016.05.03 1300 UTC
Wind: Calm:0
Visibility: 20 mile(s):0
Sky conditions: mostly cloudy
Temperature: 42 F (6 C)
Dew Point: 41 F (5 C)
Relative Humidity: 93%
Pressure (altimeter): 29.96 in. Hg (1014 hPa)
ob: CYMX 031300Z 00000KT 20SM FEW025 BKN045 BKN240 06/05 A2996 RMK SC1SC6CI1 CI TR SLP150
cycle: 13
L'Acadie, Canada (CWIZ) 45-18N 073-21W
May 03, 2016 - 10:00 AM EDT / 2016.05.03 1400 UTC
Wind: from the ENE (070 degrees) at 6 MPH (5 KT):0
Temperature: 46.9 F (8.3 C)
Dew Point: 37.9 F (3.3 C)
Relative Humidity: 70%
ob: CWIZ 031400Z AUTO 07005KT 08/03 RMK AO1 T00830033
cycle: 14
St Anicet, Canada (CWBZ) 45-07N 074-17W 49M
May 03, 2016 - 10:00 AM EDT / 2016.05.03 1400 UTC
Wind: from the SE (130 degrees) at 2 MPH (2 KT):0
Temperature: 49.3 F (9.6 C)
Dew Point: 41.2 F (5.1 C)
Relative Humidity: 73%
Pressure tendency: 0.02 inches (0.7 hPa) lower than three hours ago
ob: CWBZ 031400Z AUTO 13002KT 10/05 RMK AO1 SLP144 T00960051 58007
cycle: 14
Mount Washington, NH, United States (KMWN) 44-16N 071-18W 1910M
May 03, 2016 - 09:53 AM EDT / 2016.05.03 1353 UTC
Wind: from the NW (310 degrees) at 20 MPH (17 KT):0
Visibility: 100 mile(s):0
Sky conditions: overcast
Temperature: 32 F (0 C)
Windchill: 19 F (-7 C):1
Dew Point: 23 F (-5 C)
Relative Humidity: 69%
ob: KMWN 031353Z 31017KT 100SM OVC/// FEW100 FEW160 BKN180 M00/M05 RMK TPS LWR OVC053
cycle: 14
Vancouver International Air-Port, B. C., Canada (CYVR) 49-11N 123-10W 2M
May 03, 2016 - 10:00 AM EDT / 2016.05.03 1400 UTC
Wind: from the ESE (110 degrees) at 3 MPH (3 KT) (direction variable):0
Visibility: 30 mile(s):0
Sky conditions: overcast
Weather: light rain
Temperature: 60 F (16 C)
Dew Point: 51 F (11 C)
Relative Humidity: 72%
Pressure (altimeter): 29.98 in. Hg (1015 hPa)
ob: CYVR 031400Z 11003KT 090V160 30SM -RA FEW058 SCT075 BKN120 BKN160 OVC240 16/11 A2998 RMK SC2AC2AC2AC1CI1 SLP152
cycle: 14



The data is logged at two minute intervals, but there is data recorded every minute.

Use the RELOAD facility on your browser to retrieve the latest data.

Click here for a daily update of the averages/extremes to date for the month

Click here for Real Time Weather



Created by "Weather Display" software version 10.37R at this start time/date 20:01:39 2016-03-23